sensor_id;sensor_type;location;lat;lon;timestamp;pressure;altitude;pressure_sealevel;temperature;humidity
40490;BME280;26196;52.302;10.572;2023-09-19T00:02:30;99721.91;;;22.39;53.69
40490;BME280;26196;52.302;10.572;2023-09-19T00:06:30;99726.13;;;22.41;53.81
40490;BME280;26196;52.302;10.572;2023-09-19T00:10:32;99738.50;;;22.42;53.83
40490;BME280;26196;52.302;10.572;2023-09-19T00:14:35;99733.84;;;22.35;53.97
40490;BME280;26196;52.302;10.572;2023-09-19T00:18:36;99744.94;;;22.40;54.22
40490;BME280;26196;52.302;10.572;2023-09-19T00:22:39;99731.84;;;22.37;54.04
40490;BME280;26196;52.302;10.572;2023-09-19T00:26:40;99727.53;;;22.36;54.10
40490;BME280;26196;52.302;10.572;2023-09-19T00:30:42;99742.41;;;22.38;54.30
40490;BME280;26196;52.302;10.572;2023-09-19T00:34:43;99730.19;;;22.36;53.76
40490;BME280;26196;52.302;10.572;2023-09-19T00:38:43;99727.09;;;22.31;53.70
40490;BME280;26196;52.302;10.572;2023-09-19T00:42:47;99735.50;;;22.36;54.13
40490;BME280;26196;52.302;10.572;2023-09-19T00:46:49;99743.06;;;22.31;54.11
40490;BME280;26196;52.302;10.572;2023-09-19T00:50:50;99743.63;;;22.24;53.89
40490;BME280;26196;52.302;10.572;2023-09-19T00:54:51;99761.47;;;22.34;54.11
40490;BME280;26196;52.302;10.572;2023-09-19T00:58:52;99753.75;;;22.31;53.72
40490;BME280;26196;52.302;10.572;2023-09-19T01:02:53;99758.13;;;22.32;53.91
40490;BME280;26196;52.302;10.572;2023-09-19T01:06:54;99743.47;;;22.26;53.87
40490;BME280;26196;52.302;10.572;2023-09-19T01:10:59;99756.69;;;22.27;53.91
40490;BME280;26196;52.302;10.572;2023-09-19T01:15:21;99739.97;;;22.25;53.88
40490;BME280;26196;52.302;10.572;2023-09-19T01:19:53;99754.13;;;22.26;53.85
40490;BME280;26196;52.302;10.572;2023-09-19T01:28:43;99753.31;;;22.25;53.93
40490;BME280;26196;52.302;10.572;2023-09-19T01:32:47;99744.28;;;22.17;53.56
40490;BME280;26196;52.302;10.572;2023-09-19T01:36:50;99758.19;;;22.20;53.86
40490;BME280;26196;52.302;10.572;2023-09-19T01:40:57;99767.91;;;22.21;54.11
40490;BME280;26196;52.302;10.572;2023-09-19T01:49:29;99768.25;;;22.17;54.13
40490;BME280;26196;52.302;10.572;2023-09-19T01:53:36;99769.09;;;22.17;53.97
40490;BME280;26196;52.302;10.572;2023-09-19T02:01:45;99772.50;;;22.19;53.65
40490;BME280;26196;52.302;10.572;2023-09-19T02:05:52;99773.59;;;22.17;53.71
40490;BME280;26196;52.302;10.572;2023-09-19T02:09:53;99781.25;;;22.10;53.51
40490;BME280;26196;52.302;10.572;2023-09-19T02:13:55;99800.91;;;22.09;53.32
40490;BME280;26196;52.302;10.572;2023-09-19T02:17:55;99807.63;;;22.13;53.39
40490;BME280;26196;52.302;10.572;2023-09-19T02:21:56;99802.59;;;22.10;53.56
40490;BME280;26196;52.302;10.572;2023-09-19T02:25:57;99796.50;;;21.98;53.61
40490;BME280;26196;52.302;10.572;2023-09-19T02:30:06;99809.88;;;22.08;53.33
40490;BME280;26196;52.302;10.572;2023-09-19T02:34:07;99792.13;;;21.97;53.30
40490;BME280;26196;52.302;10.572;2023-09-19T02:38:08;99802.41;;;22.02;53.20
40490;BME280;26196;52.302;10.572;2023-09-19T02:42:11;99803.41;;;22.01;53.48
40490;BME280;26196;52.302;10.572;2023-09-19T02:46:12;99824.44;;;22.04;53.52
40490;BME280;26196;52.302;10.572;2023-09-19T02:50:13;99825.00;;;22.07;53.50
40490;BME280;26196;52.302;10.572;2023-09-19T02:54:15;99824.56;;;22.02;54.05
40490;BME280;26196;52.302;10.572;2023-09-19T02:58:16;99836.09;;;22.03;53.47
40490;BME280;26196;52.302;10.572;2023-09-19T03:02:18;99830.69;;;21.93;53.83
40490;BME280;26196;52.302;10.572;2023-09-19T03:06:19;99843.38;;;22.01;52.97
40490;BME280;26196;52.302;10.572;2023-09-19T03:10:20;99841.66;;;22.00;53.65
40490;BME280;26196;52.302;10.572;2023-09-19T03:14:21;99834.19;;;21.94;53.47
40490;BME280;26196;52.302;10.572;2023-09-19T03:18:22;99834.19;;;21.94;53.62
40490;BME280;26196;52.302;10.572;2023-09-19T03:22:23;99848.25;;;21.96;55.17
40490;BME280;26196;52.302;10.572;2023-09-19T03:26:25;99838.25;;;21.88;54.96
40490;BME280;26196;52.302;10.572;2023-09-19T03:30:26;99828.94;;;21.82;55.30
40490;BME280;26196;52.302;10.572;2023-09-19T03:34:27;99835.84;;;21.85;54.96
40490;BME280;26196;52.302;10.572;2023-09-19T03:38:27;99831.84;;;21.79;54.95
40490;BME280;26196;52.302;10.572;2023-09-19T03:42:31;99844.22;;;21.80;54.63
40490;BME280;26196;52.302;10.572;2023-09-19T03:46:31;99842.50;;;21.79;54.59
40490;BME280;26196;52.302;10.572;2023-09-19T03:50:32;99851.47;;;21.78;54.59
40490;BME280;26196;52.302;10.572;2023-09-19T03:54:33;99850.06;;;21.74;54.51
40490;BME280;26196;52.302;10.572;2023-09-19T03:58:33;99853.44;;;21.76;54.55
40490;BME280;26196;52.302;10.572;2023-09-19T04:02:39;99869.28;;;21.78;54.74
40490;BME280;26196;52.302;10.572;2023-09-19T04:06:48;99865.06;;;21.75;55.03
40490;BME280;26196;52.302;10.572;2023-09-19T04:10:48;99874.16;;;21.73;55.59
40490;BME280;26196;52.302;10.572;2023-09-19T04:14:48;99883.13;;;21.72;55.22
40490;BME280;26196;52.302;10.572;2023-09-19T04:18:50;99887.47;;;21.73;55.32
40490;BME280;26196;52.302;10.572;2023-09-19T04:22:50;99888.31;;;21.73;55.05
40490;BME280;26196;52.302;10.572;2023-09-19T04:26:53;99884.25;;;21.69;54.89
40490;BME280;26196;52.302;10.572;2023-09-19T04:30:53;99880.13;;;21.65;54.82
40490;BME280;26196;52.302;10.572;2023-09-19T04:34:55;99899.34;;;21.69;54.82
40490;BME280;26196;52.302;10.572;2023-09-19T04:39:03;99900.34;;;21.68;54.60
40490;BME280;26196;52.302;10.572;2023-09-19T04:43:07;99903.13;;;21.66;54.09
40490;BME280;26196;52.302;10.572;2023-09-19T04:47:07;99910.00;;;21.69;54.09
40490;BME280;26196;52.302;10.572;2023-09-19T04:51:08;99910.53;;;21.62;54.06
40490;BME280;26196;52.302;10.572;2023-09-19T04:55:12;99914.03;;;21.63;53.96
40490;BME280;26196;52.302;10.572;2023-09-19T04:59:16;99906.41;;;21.58;53.55
40490;BME280;26196;52.302;10.572;2023-09-19T05:03:17;99917.22;;;21.57;53.54
40490;BME280;26196;52.302;10.572;2023-09-19T05:07:17;99915.66;;;21.54;53.33
40490;BME280;26196;52.302;10.572;2023-09-19T05:11:26;99914.81;;;21.54;53.26
40490;BME280;26196;52.302;10.572;2023-09-19T05:15:26;99920.97;;;21.54;53.17
40490;BME280;26196;52.302;10.572;2023-09-19T05:19:32;99919.41;;;21.52;53.13
40490;BME280;26196;52.302;10.572;2023-09-19T05:23:34;99918.16;;;21.56;53.06
40490;BME280;26196;52.302;10.572;2023-09-19T05:27:34;99925.00;;;21.49;53.22
40490;BME280;26196;52.302;10.572;2023-09-19T05:31:34;99932.72;;;21.52;53.60
40490;BME280;26196;52.302;10.572;2023-09-19T05:35:41;99937.06;;;21.53;54.66
40490;BME280;26196;52.302;10.572;2023-09-19T05:39:42;99939.97;;;21.50;54.75
40490;BME280;26196;52.302;10.572;2023-09-19T05:43:42;99933.69;;;21.51;54.07
40490;BME280;26196;52.302;10.572;2023-09-19T05:47:43;99937.69;;;21.45;53.96
40490;BME280;26196;52.302;10.572;2023-09-19T05:51:47;99948.47;;;21.44;53.41
40490;BME280;26196;52.302;10.572;2023-09-19T05:55:48;99961.91;;;21.42;52.83
40490;BME280;26196;52.302;10.572;2023-09-19T05:59:49;99954.25;;;21.37;52.71
40490;BME280;26196;52.302;10.572;2023-09-19T06:03:50;99966.00;;;21.35;52.81
40490;BME280;26196;52.302;10.572;2023-09-19T06:07:53;99976.44;;;21.38;52.63
40490;BME280;26196;52.302;10.572;2023-09-19T06:11:55;99972.66;;;21.29;52.51
40490;BME280;26196;52.302;10.572;2023-09-19T06:15:55;99980.88;;;21.37;52.44
40490;BME280;26196;52.302;10.572;2023-09-19T06:20:00;99983.06;;;21.32;52.75
40490;BME280;26196;52.302;10.572;2023-09-19T06:24:04;100021.78;;;21.48;52.97
40490;BME280;26196;52.302;10.572;2023-09-19T06:28:05;100031.75;;;21.46;52.48
40490;BME280;26196;52.302;10.572;2023-09-19T06:32:08;100039.22;;;21.52;52.28
40490;BME280;26196;52.302;10.572;2023-09-19T06:36:10;100030.50;;;21.50;52.63
40490;BME280;26196;52.302;10.572;2023-09-19T06:40:12;100041.91;;;21.52;52.50
40490;BME280;26196;52.302;10.572;2023-09-19T06:44:14;100038.75;;;21.47;52.48
40490;BME280;26196;52.302;10.572;2023-09-19T06:48:15;100046.00;;;21.45;52.29
40490;BME280;26196;52.302;10.572;2023-09-19T06:52:15;100035.09;;;21.36;52.41
40490;BME280;26196;52.302;10.572;2023-09-19T06:56:16;100035.88;;;21.38;52.75
40490;BME280;26196;52.302;10.572;2023-09-19T07:00:16;100027.94;;;21.37;52.53
40490;BME280;26196;52.302;10.572;2023-09-19T07:04:22;100023.88;;;21.33;52.79
40490;BME280;26196;52.302;10.572;2023-09-19T07:08:22;100008.72;;;21.33;52.33
40490;BME280;26196;52.302;10.572;2023-09-19T07:12:22;100007.16;;;21.31;52.55
40490;BME280;26196;52.302;10.572;2023-09-19T07:16:23;100011.97;;;21.37;52.59
40490;BME280;26196;52.302;10.572;2023-09-19T07:20:29;100033.41;;;21.35;52.43
40490;BME280;26196;52.302;10.572;2023-09-19T07:24:31;100035.72;;;21.40;52.39
40490;BME280;26196;52.302;10.572;2023-09-19T07:28:33;100050.09;;;21.37;52.22
40490;BME280;26196;52.302;10.572;2023-09-19T07:32:35;100051.91;;;21.37;52.21
40490;BME280;26196;52.302;10.572;2023-09-19T07:36:38;100048.66;;;21.33;52.56
40490;BME280;26196;52.302;10.572;2023-09-19T07:40:40;100047.44;;;21.26;52.51
40490;BME280;26196;52.302;10.572;2023-09-19T07:44:40;100057.84;;;21.29;52.56
40490;BME280;26196;52.302;10.572;2023-09-19T07:48:41;100063.91;;;21.31;52.41
40490;BME280;26196;52.302;10.572;2023-09-19T07:52:45;100053.03;;;21.23;52.65
40490;BME280;26196;52.302;10.572;2023-09-19T07:56:45;100056.66;;;21.22;52.26
40490;BME280;26196;52.302;10.572;2023-09-19T08:00:46;100068.63;;;21.28;52.43
40490;BME280;26196;52.302;10.572;2023-09-19T08:04:46;100081.06;;;21.27;52.69
40490;BME280;26196;52.302;10.572;2023-09-19T08:08:46;100080.97;;;21.29;52.36
40490;BME280;26196;52.302;10.572;2023-09-19T08:12:48;100095.84;;;21.31;52.56
40490;BME280;26196;52.302;10.572;2023-09-19T08:16:49;100105.03;;;21.27;52.63
40490;BME280;26196;52.302;10.572;2023-09-19T08:20:50;100092.22;;;21.21;52.26
40490;BME280;26196;52.302;10.572;2023-09-19T08:24:51;100090.78;;;21.17;52.03
40490;BME280;26196;52.302;10.572;2023-09-19T08:28:51;100105.41;;;21.23;51.55
40490;BME280;26196;52.302;10.572;2023-09-19T08:32:51;100109.03;;;21.22;52.19
40490;BME280;26196;52.302;10.572;2023-09-19T08:36:56;100108.44;;;21.18;52.60
40490;BME280;26196;52.302;10.572;2023-09-19T08:40:57;100105.88;;;21.16;52.48
40490;BME280;26196;52.302;10.572;2023-09-19T08:44:59;100098.75;;;21.17;52.56
40490;BME280;26196;52.302;10.572;2023-09-19T08:49:05;100108.19;;;21.21;52.63
40490;BME280;26196;52.302;10.572;2023-09-19T08:53:21;100103.22;;;21.16;51.94
40490;BME280;26196;52.302;10.572;2023-09-19T08:57:29;100100.31;;;21.08;52.43
40490;BME280;26196;52.302;10.572;2023-09-19T09:01:34;100105.38;;;21.11;52.54
40490;BME280;26196;52.302;10.572;2023-09-19T09:05:41;100108.44;;;21.18;52.40
40490;BME280;26196;52.302;10.572;2023-09-19T09:09:43;100106.13;;;21.13;51.77
40490;BME280;26196;52.302;10.572;2023-09-19T09:13:45;100103.34;;;21.15;52.20
40490;BME280;26196;52.302;10.572;2023-09-19T09:17:51;100109.41;;;21.17;52.58
40490;BME280;26196;52.302;10.572;2023-09-19T09:22:06;100111.34;;;21.15;52.28
40490;BME280;26196;52.302;10.572;2023-09-19T09:26:06;100127.53;;;21.12;52.56
40490;BME280;26196;52.302;10.572;2023-09-19T09:30:07;100116.16;;;21.10;52.53
40490;BME280;26196;52.302;10.572;2023-09-19T09:34:08;100114.19;;;21.01;52.24
40490;BME280;26196;52.302;10.572;2023-09-19T09:38:09;100131.16;;;21.11;52.06
40490;BME280;26196;52.302;10.572;2023-09-19T09:42:29;100120.84;;;21.06;51.90
40490;BME280;26196;52.302;10.572;2023-09-19T09:46:32;100114.09;;;21.02;52.08
40490;BME280;26196;52.302;10.572;2023-09-19T09:50:48;100129.47;;;21.10;52.35
40490;BME280;26196;52.302;10.572;2023-09-19T09:55:02;100133.72;;;21.12;52.15
40490;BME280;26196;52.302;10.572;2023-09-19T09:59:07;100118.31;;;21.05;52.25
40490;BME280;26196;52.302;10.572;2023-09-19T10:03:19;100131.28;;;21.09;52.49
40490;BME280;26196;52.302;10.572;2023-09-19T10:07:30;100116.63;;;21.04;52.13
40490;BME280;26196;52.302;10.572;2023-09-19T10:11:43;100133.81;;;21.11;51.68
40490;BME280;26196;52.302;10.572;2023-09-19T10:15:47;100141.06;;;21.09;51.92
40490;BME280;26196;52.302;10.572;2023-09-19T10:19:55;100143.50;;;21.12;51.95
40490;BME280;26196;52.302;10.572;2023-09-19T10:24:01;100155.34;;;21.08;52.19
40490;BME280;26196;52.302;10.572;2023-09-19T10:28:09;100155.34;;;21.08;52.19
40490;BME280;26196;52.302;10.572;2023-09-19T10:32:14;100156.19;;;21.08;52.09
40490;BME280;26196;52.302;10.572;2023-09-19T10:36:24;100141.78;;;21.11;51.80
40490;BME280;26196;52.302;10.572;2023-09-19T10:40:27;100155.44;;;21.06;52.48
40490;BME280;26196;52.302;10.572;2023-09-19T10:44:32;100151.00;;;21.07;52.53
40490;BME280;26196;52.302;10.572;2023-09-19T10:48:33;100148.34;;;21.07;52.25
40490;BME280;26196;52.302;10.572;2023-09-19T10:52:39;100152.91;;;21.05;52.29
40490;BME280;26196;52.302;10.572;2023-09-19T10:56:46;100150.00;;;21.08;51.61
40490;BME280;26196;52.302;10.572;2023-09-19T11:00:58;100146.13;;;21.01;51.30
40490;BME280;26196;52.302;10.572;2023-09-19T11:05:25;100140.47;;;21.05;51.65
40490;BME280;26196;52.302;10.572;2023-09-19T11:10:03;100144.44;;;21.11;52.34
40490;BME280;26196;52.302;10.572;2023-09-19T11:27:09;100128.63;;;21.09;52.51
40490;BME280;26196;52.302;10.572;2023-09-19T11:31:42;100121.34;;;21.11;52.71
40490;BME280;26196;52.302;10.572;2023-09-19T11:40:08;100124.16;;;21.10;52.38
40490;BME280;26196;52.302;10.572;2023-09-19T11:48:18;100124.16;;;21.10;52.07
40490;BME280;26196;52.302;10.572;2023-09-19T11:52:22;100119.91;;;21.07;52.39
40490;BME280;26196;52.302;10.572;2023-09-19T11:56:25;100128.50;;;21.11;52.26
40490;BME280;26196;52.302;10.572;2023-09-19T12:00:27;100092.41;;;20.95;51.82
40490;BME280;26196;52.302;10.572;2023-09-19T12:08:39;100103.69;;;21.10;51.16
40490;BME280;26196;52.302;10.572;2023-09-19T12:12:40;100108.19;;;21.10;49.76
40490;BME280;26196;52.302;10.572;2023-09-19T12:16:57;100115.66;;;21.05;49.76
40490;BME280;26196;52.302;10.572;2023-09-19T12:20:59;100109.84;;;21.00;49.73
40490;BME280;26196;52.302;10.572;2023-09-19T12:25:06;100096.28;;;20.91;49.08
40490;BME280;26196;52.302;10.572;2023-09-19T12:29:15;100113.00;;;20.93;49.30
40490;BME280;26196;52.302;10.572;2023-09-19T12:33:18;100114.09;;;21.02;49.70
40490;BME280;26196;52.302;10.572;2023-09-19T12:37:20;100122.31;;;20.99;49.41
40490;BME280;26196;52.302;10.572;2023-09-19T12:41:23;100110.78;;;20.98;49.37
40490;BME280;26196;52.302;10.572;2023-09-19T12:45:25;100111.66;;;20.99;49.69
40490;BME280;26196;52.302;10.572;2023-09-19T12:49:25;100098.22;;;20.89;49.36
40490;BME280;26196;52.302;10.572;2023-09-19T12:53:36;100102.22;;;20.95;49.43
40490;BME280;26196;52.302;10.572;2023-09-19T12:57:40;100100.88;;;20.89;48.87
40490;BME280;26196;52.302;10.572;2023-09-19T13:01:42;100094.59;;;20.90;49.51
40490;BME280;26196;52.302;10.572;2023-09-19T13:06:34;100111.78;;;20.97;49.55
40490;BME280;26196;52.302;10.572;2023-09-19T13:15:15;100090.22;;;20.78;48.94
40490;BME280;26196;52.302;10.572;2023-09-19T13:23:45;100081.25;;;20.79;50.45
40490;BME280;26196;52.302;10.572;2023-09-19T13:31:49;100100.16;;;20.98;49.85
40490;BME280;26196;52.302;10.572;2023-09-19T13:35:52;100089.50;;;20.98;48.81
40490;BME280;26196;52.302;10.572;2023-09-19T13:39:53;100093.88;;;21.00;48.98
40490;BME280;26196;52.302;10.572;2023-09-19T13:43:53;100089.50;;;20.98;49.12
40490;BME280;26196;52.302;10.572;2023-09-19T13:47:57;100073.69;;;20.97;49.06
40490;BME280;26196;52.302;10.572;2023-09-19T13:51:59;100077.31;;;20.96;49.46
40490;BME280;26196;52.302;10.572;2023-09-19T13:56:03;100082.75;;;20.94;49.04
40490;BME280;26196;52.302;10.572;2023-09-19T14:00:04;100079.25;;;20.94;49.04
40490;BME280;26196;52.302;10.572;2023-09-19T14:04:05;100090.13;;;21.02;49.18
40490;BME280;26196;52.302;10.572;2023-09-19T14:08:05;100084.09;;;21.00;49.38
40490;BME280;26196;52.302;10.572;2023-09-19T14:12:07;100075.38;;;20.98;49.21
40490;BME280;26196;52.302;10.572;2023-09-19T14:16:07;100073.78;;;20.95;49.23
40490;BME280;26196;52.302;10.572;2023-09-19T14:20:09;100079.59;;;21.01;49.42
40490;BME280;26196;52.302;10.572;2023-09-19T14:24:10;100072.34;;;21.03;49.48
40490;BME280;26196;52.302;10.572;2023-09-19T14:28:13;100059.16;;;21.01;49.60
40490;BME280;26196;52.302;10.572;2023-09-19T14:32:15;100051.31;;;21.00;49.44
40490;BME280;26196;52.302;10.572;2023-09-19T14:36:18;100066.78;;;21.06;49.23
40490;BME280;26196;52.302;10.572;2023-09-19T14:40:19;100059.31;;;21.00;49.13
40490;BME280;26196;52.302;10.572;2023-09-19T14:44:26;100046.00;;;21.00;49.07
40490;BME280;26196;52.302;10.572;2023-09-19T14:48:26;100059.16;;;21.01;48.89
40490;BME280;26196;52.302;10.572;2023-09-19T14:52:26;100049.75;;;20.97;49.02
40490;BME280;26196;52.302;10.572;2023-09-19T14:56:28;100053.84;;;21.01;49.15
40490;BME280;26196;52.302;10.572;2023-09-19T15:00:30;100059.16;;;21.01;49.20
40490;BME280;26196;52.302;10.572;2023-09-19T15:04:30;100056.41;;;21.03;48.63
40490;BME280;26196;52.302;10.572;2023-09-19T15:08:33;100061.72;;;21.03;49.05
40490;BME280;26196;52.302;10.572;2023-09-19T15:12:36;100049.59;;;20.98;49.36
40490;BME280;26196;52.302;10.572;2023-09-19T15:16:45;100065.94;;;21.05;49.43
40490;BME280;26196;52.302;10.572;2023-09-19T15:20:46;100055.41;;;21.04;49.59
40490;BME280;26196;52.302;10.572;2023-09-19T15:24:48;100053.25;;;21.09;49.55
40490;BME280;26196;52.302;10.572;2023-09-19T15:28:48;100049.88;;;21.07;49.60
40490;BME280;26196;52.302;10.572;2023-09-19T15:32:50;100050.56;;;21.09;49.72
40490;BME280;26196;52.302;10.572;2023-09-19T15:36:52;100018.16;;;20.92;49.37
40490;BME280;26196;52.302;10.572;2023-09-19T15:40:53;100042.34;;;21.01;49.67
40490;BME280;26196;52.302;10.572;2023-09-19T15:44:54;100051.06;;;21.03;49.55
40490;BME280;26196;52.302;10.572;2023-09-19T15:48:56;100060.03;;;21.13;49.55
40490;BME280;26196;52.302;10.572;2023-09-19T15:52:57;100048.50;;;21.01;49.27
40490;BME280;26196;52.302;10.572;2023-09-19T15:56:59;100062.81;;;21.11;49.28
40490;BME280;26196;52.302;10.572;2023-09-19T16:01:05;100051.06;;;21.03;49.60
40490;BME280;26196;52.302;10.572;2023-09-19T16:05:06;100045.25;;;21.09;49.59
40490;BME280;26196;52.302;10.572;2023-09-19T16:09:08;100064.38;;;21.14;49.70
40490;BME280;26196;52.302;10.572;2023-09-19T16:13:10;100050.56;;;21.09;49.60
40490;BME280;26196;52.302;10.572;2023-09-19T16:17:10;100053.97;;;21.11;49.69
40490;BME280;26196;52.302;10.572;2023-09-19T16:21:11;100049.38;;;21.02;49.05
40490;BME280;26196;52.302;10.572;2023-09-19T16:25:11;100037.03;;;21.01;49.43
40490;BME280;26196;52.302;10.572;2023-09-19T16:29:12;100042.09;;;21.04;49.33
40490;BME280;26196;52.302;10.572;2023-09-19T16:33:12;100043.56;;;21.08;49.23
40490;BME280;26196;52.302;10.572;2023-09-19T16:37:12;100053.03;;;21.12;49.38
40490;BME280;26196;52.302;10.572;2023-09-19T16:41:15;100069.00;;;21.12;49.25
40490;BME280;26196;52.302;10.572;2023-09-19T16:45:16;100067.41;;;21.09;49.22
40490;BME280;26196;52.302;10.572;2023-09-19T16:49:17;100067.41;;;21.09;49.02
40490;BME280;26196;52.302;10.572;2023-09-19T16:53:18;100069.34;;;21.07;49.31
40490;BME280;26196;52.302;10.572;2023-09-19T16:57:18;100074.53;;;21.09;49.95
40490;BME280;26196;52.302;10.572;2023-09-19T17:01:20;100080.34;;;21.14;50.64
40490;BME280;26196;52.302;10.572;2023-09-19T17:05:24;100057.72;;;21.08;50.56
40490;BME280;26196;52.302;10.572;2023-09-19T17:09:26;100059.28;;;21.11;49.94
40490;BME280;26196;52.302;10.572;2023-09-19T17:13:28;100049.00;;;21.06;50.34
40490;BME280;26196;52.302;10.572;2023-09-19T17:17:29;100052.28;;;21.10;50.42
40490;BME280;26196;52.302;10.572;2023-09-19T17:21:30;100057.84;;;21.07;49.92
40490;BME280;26196;52.302;10.572;2023-09-19T17:25:30;100066.81;;;21.17;50.10
40490;BME280;26196;52.302;10.572;2023-09-19T17:29:33;100072.59;;;21.11;49.75
40490;BME280;26196;52.302;10.572;2023-09-19T17:33:33;100062.56;;;21.03;49.47
40490;BME280;26196;52.302;10.572;2023-09-19T17:37:34;100064.72;;;20.98;49.65
40490;BME280;26196;52.302;10.572;2023-09-19T17:41:34;100066.53;;;21.09;49.40
40490;BME280;26196;52.302;10.572;2023-09-19T17:45:37;100070.19;;;21.08;49.85
40490;BME280;26196;52.302;10.572;2023-09-19T17:49:37;100070.44;;;21.05;49.66
40490;BME280;26196;52.302;10.572;2023-09-19T17:53:38;100053.38;;;20.96;49.57
40490;BME280;26196;52.302;10.572;2023-09-19T17:57:40;100072.84;;;21.08;49.81
40490;BME280;26196;52.302;10.572;2023-09-19T18:01:41;100063.41;;;21.04;49.62
40490;BME280;26196;52.302;10.572;2023-09-19T18:05:52;100072.75;;;21.09;49.88
40490;BME280;26196;52.302;10.572;2023-09-19T18:09:56;100066.78;;;21.06;49.73
40490;BME280;26196;52.302;10.572;2023-09-19T18:14:00;100066.78;;;21.06;49.73
40490;BME280;26196;52.302;10.572;2023-09-19T18:18:04;100078.16;;;21.08;49.68
40490;BME280;26196;52.302;10.572;2023-09-19T18:22:05;100065.47;;;21.00;49.50
40490;BME280;26196;52.302;10.572;2023-09-19T18:26:06;100069.69;;;21.03;49.92
40490;BME280;26196;52.302;10.572;2023-09-19T18:30:07;100061.38;;;20.96;50.18
40490;BME280;26196;52.302;10.572;2023-09-19T18:34:08;100074.03;;;21.04;50.20
40490;BME280;26196;52.302;10.572;2023-09-19T18:38:09;100080.44;;;21.01;50.46
40490;BME280;26196;52.302;10.572;2023-09-19T18:42:11;100074.88;;;20.93;50.75
40490;BME280;26196;52.302;10.572;2023-09-19T18:46:18;100082.16;;;21.02;50.27
40490;BME280;26196;52.302;10.572;2023-09-19T18:50:19;100075.50;;;20.96;50.78
40490;BME280;26196;52.302;10.572;2023-09-19T18:54:22;100073.09;;;20.93;51.09
40490;BME280;26196;52.302;10.572;2023-09-19T18:58:23;100091.47;;;20.96;49.44
40490;BME280;26196;52.302;10.572;2023-09-19T19:02:24;100069.44;;;20.94;49.74
40490;BME280;26196;52.302;10.572;2023-09-19T19:06:24;100070.44;;;20.93;49.62
40490;BME280;26196;52.302;10.572;2023-09-19T19:10:38;100051.78;;;20.82;49.22
40490;BME280;26196;52.302;10.572;2023-09-19T19:19:06;100036.03;;;20.68;50.43
40490;BME280;26196;52.302;10.572;2023-09-19T19:23:13;100039.41;;;20.70;49.74
40490;BME280;26196;52.302;10.572;2023-09-19T19:27:40;100078.41;;;20.93;51.19
40490;BME280;26196;52.302;10.572;2023-09-19T19:31:44;100036.72;;;20.59;49.05
40490;BME280;26196;52.302;10.572;2023-09-19T19:35:44;100071.72;;;20.88;50.37
40490;BME280;26196;52.302;10.572;2023-09-19T19:39:49;100053.34;;;20.73;49.32
40490;BME280;26196;52.302;10.572;2023-09-19T19:43:49;100080.69;;;20.87;49.21
40490;BME280;26196;52.302;10.572;2023-09-19T19:47:49;100081.06;;;20.93;50.01
40490;BME280;26196;52.302;10.572;2023-09-19T19:51:55;100087.34;;;20.92;50.13
40490;BME280;26196;52.302;10.572;2023-09-19T19:55:59;100092.91;;;20.89;51.07
40490;BME280;26196;52.302;10.572;2023-09-19T19:59:59;100075.47;;;20.85;50.67
40490;BME280;26196;52.302;10.572;2023-09-19T20:04:16;100082.38;;;20.88;49.74
40490;BME280;26196;52.302;10.572;2023-09-19T20:08:18;100081.75;;;20.84;48.73
40490;BME280;26196;52.302;10.572;2023-09-19T20:12:19;100089.75;;;20.84;50.87
40490;BME280;26196;52.302;10.572;2023-09-19T20:16:19;100056.09;;;20.61;51.06
40490;BME280;26196;52.302;10.572;2023-09-19T20:20:20;100091.44;;;20.85;50.21
40490;BME280;26196;52.302;10.572;2023-09-19T20:24:31;100078.84;;;20.76;50.15
40490;BME280;26196;52.302;10.572;2023-09-19T20:28:32;100094.09;;;20.85;49.68
40490;BME280;26196;52.302;10.572;2023-09-19T20:32:34;100086.09;;;20.74;50.66
40490;BME280;26196;52.302;10.572;2023-09-19T20:36:35;100089.97;;;20.81;49.66
40490;BME280;26196;52.302;10.572;2023-09-19T20:40:49;100089.97;;;20.81;50.03
40490;BME280;26196;52.302;10.572;2023-09-19T20:44:49;100081.88;;;20.83;50.25
40490;BME280;26196;52.302;10.572;2023-09-19T20:48:50;100076.69;;;20.81;50.11
40490;BME280;26196;52.302;10.572;2023-09-19T20:52:50;100085.41;;;20.83;50.25
40490;BME280;26196;52.302;10.572;2023-09-19T20:56:51;100075.09;;;20.79;50.00
40490;BME280;26196;52.302;10.572;2023-09-19T21:01:00;100081.50;;;20.76;50.86
40490;BME280;26196;52.302;10.572;2023-09-19T21:05:02;100059.84;;;20.69;51.89
40490;BME280;26196;52.302;10.572;2023-09-19T21:09:02;100063.97;;;20.73;50.29
40490;BME280;26196;52.302;10.572;2023-09-19T21:13:03;100069.41;;;20.72;49.60
40490;BME280;26196;52.302;10.572;2023-09-19T21:17:06;100067.47;;;20.74;50.81
40490;BME280;26196;52.302;10.572;2023-09-19T21:21:07;100065.78;;;20.73;50.05
40490;BME280;26196;52.302;10.572;2023-09-19T21:25:08;100077.28;;;20.73;50.49
40490;BME280;26196;52.302;10.572;2023-09-19T21:29:09;100071.94;;;20.73;50.13
40490;BME280;26196;52.302;10.572;2023-09-19T21:33:09;100089.84;;;20.71;50.18
40490;BME280;26196;52.302;10.572;2023-09-19T21:37:09;100072.78;;;20.63;50.56
40490;BME280;26196;52.302;10.572;2023-09-19T21:41:15;100075.44;;;20.74;49.82
40490;BME280;26196;52.302;10.572;2023-09-19T21:45:16;100064.56;;;20.66;51.44
40490;BME280;26196;52.302;10.572;2023-09-19T21:49:17;100075.78;;;20.69;50.33
40490;BME280;26196;52.302;10.572;2023-09-19T21:53:17;100061.91;;;20.66;51.74
40490;BME280;26196;52.302;10.572;2023-09-19T21:57:19;100073.78;;;20.73;49.84